sensor_id;sensor_type;location;lat;lon;timestamp;temperature;humidity
18083;DHT22;9168;51.194;6.840;2023-04-09T00:01:18;8.80;99.90
18083;DHT22;9168;51.194;6.840;2023-04-09T00:03:45;8.70;99.90
18083;DHT22;9168;51.194;6.840;2023-04-09T00:06:12;8.70;99.90
18083;DHT22;9168;51.194;6.840;2023-04-09T00:08:39;8.60;99.90
18083;DHT22;9168;51.194;6.840;2023-04-09T00:11:06;8.50;99.90
18083;DHT22;9168;51.194;6.840;2023-04-09T00:13:34;8.50;99.90
18083;DHT22;9168;51.194;6.840;2023-04-09T00:16:01;8.40;99.90
18083;DHT22;9168;51.194;6.840;2023-04-09T00:18:28;8.30;99.90
18083;DHT22;9168;51.194;6.840;2023-04-09T00:20:55;8.20;99.90
18083;DHT22;9168;51.194;6.840;2023-04-09T00:23:21;8.10;99.90
18083;DHT22;9168;51.194;6.840;2023-04-09T00:25:48;8.10;99.90
18083;DHT22;9168;51.194;6.840;2023-04-09T00:28:15;8.00;99.90
18083;DHT22;9168;51.194;6.840;2023-04-09T00:30:43;7.90;99.90
18083;DHT22;9168;51.194;6.840;2023-04-09T00:33:10;7.90;99.90
18083;DHT22;9168;51.194;6.840;2023-04-09T00:35:37;7.80;99.90
18083;DHT22;9168;51.194;6.840;2023-04-09T00:38:04;7.70;99.90
18083;DHT22;9168;51.194;6.840;2023-04-09T00:40:31;7.70;99.90
18083;DHT22;9168;51.194;6.840;2023-04-09T00:42:58;7.60;99.90
18083;DHT22;9168;51.194;6.840;2023-04-09T00:45:25;7.60;99.90
18083;DHT22;9168;51.194;6.840;2023-04-09T00:47:53;7.50;99.90
18083;DHT22;9168;51.194;6.840;2023-04-09T00:50:20;7.50;99.90
18083;DHT22;9168;51.194;6.840;2023-04-09T00:52:47;7.40;99.90
18083;DHT22;9168;51.194;6.840;2023-04-09T00:55:14;7.40;99.90
18083;DHT22;9168;51.194;6.840;2023-04-09T00:57:43;7.30;99.90
18083;DHT22;9168;51.194;6.840;2023-04-09T01:00:11;7.30;99.90
18083;DHT22;9168;51.194;6.840;2023-04-09T01:02:38;7.20;99.90
18083;DHT22;9168;51.194;6.840;2023-04-09T01:05:08;7.20;99.90
18083;DHT22;9168;51.194;6.840;2023-04-09T01:07:44;7.10;99.90
18083;DHT22;9168;51.194;6.840;2023-04-09T01:10:18;7.10;99.90
18083;DHT22;9168;51.194;6.840;2023-04-09T01:12:53;7.00;99.90
18083;DHT22;9168;51.194;6.840;2023-04-09T01:15:27;7.00;99.90
18083;DHT22;9168;51.194;6.840;2023-04-09T01:18:00;6.90;99.90
18083;DHT22;9168;51.194;6.840;2023-04-09T01:20:34;6.90;99.90
18083;DHT22;9168;51.194;6.840;2023-04-09T01:23:10;6.90;99.90
18083;DHT22;9168;51.194;6.840;2023-04-09T01:25:44;6.80;99.90
18083;DHT22;9168;51.194;6.840;2023-04-09T01:28:18;6.80;99.90
18083;DHT22;9168;51.194;6.840;2023-04-09T01:30:49;6.70;99.90
18083;DHT22;9168;51.194;6.840;2023-04-09T01:33:17;6.70;99.90
18083;DHT22;9168;51.194;6.840;2023-04-09T01:35:46;6.70;99.90
18083;DHT22;9168;51.194;6.840;2023-04-09T01:38:16;6.60;99.90
18083;DHT22;9168;51.194;6.840;2023-04-09T01:40:44;6.60;99.90
18083;DHT22;9168;51.194;6.840;2023-04-09T01:43:12;6.60;99.90
18083;DHT22;9168;51.194;6.840;2023-04-09T01:45:41;6.60;99.90
18083;DHT22;9168;51.194;6.840;2023-04-09T01:48:08;6.70;99.90
18083;DHT22;9168;51.194;6.840;2023-04-09T01:50:36;6.70;99.90
18083;DHT22;9168;51.194;6.840;2023-04-09T01:53:03;6.70;99.90
18083;DHT22;9168;51.194;6.840;2023-04-09T01:55:30;6.80;99.90
18083;DHT22;9168;51.194;6.840;2023-04-09T01:57:57;6.80;99.90
18083;DHT22;9168;51.194;6.840;2023-04-09T02:00:29;6.90;99.90
18083;DHT22;9168;51.194;6.840;2023-04-09T02:03:03;6.90;99.90
18083;DHT22;9168;51.194;6.840;2023-04-09T02:05:35;6.90;99.90
18083;DHT22;9168;51.194;6.840;2023-04-09T02:08:05;6.90;99.90
18083;DHT22;9168;51.194;6.840;2023-04-09T02:10:34;6.90;99.90
18083;DHT22;9168;51.194;6.840;2023-04-09T02:13:04;7.00;99.90
18083;DHT22;9168;51.194;6.840;2023-04-09T02:15:32;7.00;99.90
18083;DHT22;9168;51.194;6.840;2023-04-09T02:18:01;7.10;99.90
18083;DHT22;9168;51.194;6.840;2023-04-09T02:20:28;7.00;99.90
18083;DHT22;9168;51.194;6.840;2023-04-09T02:22:55;7.10;99.90
18083;DHT22;9168;51.194;6.840;2023-04-09T02:25:22;7.10;99.90
18083;DHT22;9168;51.194;6.840;2023-04-09T02:27:49;7.10;99.90
18083;DHT22;9168;51.194;6.840;2023-04-09T02:30:15;7.00;99.90
18083;DHT22;9168;51.194;6.840;2023-04-09T02:32:42;7.00;99.90
18083;DHT22;9168;51.194;6.840;2023-04-09T02:35:10;7.00;99.90
18083;DHT22;9168;51.194;6.840;2023-04-09T02:37:39;7.00;99.90
18083;DHT22;9168;51.194;6.840;2023-04-09T02:40:06;6.90;99.90
18083;DHT22;9168;51.194;6.840;2023-04-09T02:42:33;6.90;99.90
18083;DHT22;9168;51.194;6.840;2023-04-09T02:45:00;6.90;99.90
18083;DHT22;9168;51.194;6.840;2023-04-09T02:47:28;6.90;99.90
18083;DHT22;9168;51.194;6.840;2023-04-09T02:49:55;6.80;99.90
18083;DHT22;9168;51.194;6.840;2023-04-09T02:52:23;6.80;99.90
18083;DHT22;9168;51.194;6.840;2023-04-09T02:54:51;6.70;99.90
18083;DHT22;9168;51.194;6.840;2023-04-09T02:57:18;6.70;99.90
18083;DHT22;9168;51.194;6.840;2023-04-09T02:59:45;6.60;99.90
18083;DHT22;9168;51.194;6.840;2023-04-09T03:02:12;6.60;99.90
18083;DHT22;9168;51.194;6.840;2023-04-09T03:04:39;6.50;99.90
18083;DHT22;9168;51.194;6.840;2023-04-09T03:07:06;6.50;99.90
18083;DHT22;9168;51.194;6.840;2023-04-09T03:09:34;6.50;99.90
18083;DHT22;9168;51.194;6.840;2023-04-09T03:12:01;6.40;99.90
18083;DHT22;9168;51.194;6.840;2023-04-09T03:14:28;6.40;99.90
18083;DHT22;9168;51.194;6.840;2023-04-09T03:16:55;6.30;99.90
18083;DHT22;9168;51.194;6.840;2023-04-09T03:19:21;6.30;99.90
18083;DHT22;9168;51.194;6.840;2023-04-09T03:21:48;6.30;99.90
18083;DHT22;9168;51.194;6.840;2023-04-09T03:24:16;6.30;99.90
18083;DHT22;9168;51.194;6.840;2023-04-09T03:26:44;6.20;99.90
18083;DHT22;9168;51.194;6.840;2023-04-09T03:29:11;6.20;99.90
18083;DHT22;9168;51.194;6.840;2023-04-09T03:31:38;6.10;99.90
18083;DHT22;9168;51.194;6.840;2023-04-09T03:34:04;6.10;99.90
18083;DHT22;9168;51.194;6.840;2023-04-09T03:36:31;6.10;99.90
18083;DHT22;9168;51.194;6.840;2023-04-09T03:38:58;6.10;99.90
18083;DHT22;9168;51.194;6.840;2023-04-09T03:41:26;6.10;99.90
18083;DHT22;9168;51.194;6.840;2023-04-09T03:43:54;6.10;99.90
18083;DHT22;9168;51.194;6.840;2023-04-09T03:46:21;6.10;99.90
18083;DHT22;9168;51.194;6.840;2023-04-09T03:48:48;6.10;99.90
18083;DHT22;9168;51.194;6.840;2023-04-09T03:51:15;6.00;99.90
18083;DHT22;9168;51.194;6.840;2023-04-09T03:53:42;6.00;99.90
18083;DHT22;9168;51.194;6.840;2023-04-09T03:56:10;6.00;99.90
18083;DHT22;9168;51.194;6.840;2023-04-09T03:58:37;6.00;99.90
18083;DHT22;9168;51.194;6.840;2023-04-09T04:01:05;5.90;99.90
18083;DHT22;9168;51.194;6.840;2023-04-09T04:03:32;5.90;99.90
18083;DHT22;9168;51.194;6.840;2023-04-09T04:06:00;5.90;99.90
18083;DHT22;9168;51.194;6.840;2023-04-09T04:08:27;5.90;99.90
18083;DHT22;9168;51.194;6.840;2023-04-09T04:10:54;5.80;99.90
18083;DHT22;9168;51.194;6.840;2023-04-09T04:13:21;5.90;99.90
18083;DHT22;9168;51.194;6.840;2023-04-09T04:15:48;5.80;99.90
18083;DHT22;9168;51.194;6.840;2023-04-09T04:18:16;5.80;99.90
18083;DHT22;9168;51.194;6.840;2023-04-09T04:20:43;5.70;99.90
18083;DHT22;9168;51.194;6.840;2023-04-09T04:23:10;5.70;99.90
18083;DHT22;9168;51.194;6.840;2023-04-09T04:25:39;5.60;99.90
18083;DHT22;9168;51.194;6.840;2023-04-09T04:28:06;5.60;99.90
18083;DHT22;9168;51.194;6.840;2023-04-09T04:30:33;5.60;99.90
18083;DHT22;9168;51.194;6.840;2023-04-09T04:33:01;5.60;99.90
18083;DHT22;9168;51.194;6.840;2023-04-09T04:35:29;5.60;99.90
18083;DHT22;9168;51.194;6.840;2023-04-09T04:37:56;5.50;99.90
18083;DHT22;9168;51.194;6.840;2023-04-09T04:40:23;5.50;99.90
18083;DHT22;9168;51.194;6.840;2023-04-09T04:42:49;5.50;99.90
18083;DHT22;9168;51.194;6.840;2023-04-09T04:45:16;5.40;99.90
18083;DHT22;9168;51.194;6.840;2023-04-09T04:47:43;5.40;99.90
18083;DHT22;9168;51.194;6.840;2023-04-09T04:50:10;5.40;99.90
18083;DHT22;9168;51.194;6.840;2023-04-09T04:52:38;5.40;99.90
18083;DHT22;9168;51.194;6.840;2023-04-09T04:55:06;5.40;99.90
18083;DHT22;9168;51.194;6.840;2023-04-09T04:57:32;5.30;99.90
18083;DHT22;9168;51.194;6.840;2023-04-09T04:59:59;5.30;99.90
18083;DHT22;9168;51.194;6.840;2023-04-09T05:02:26;5.30;99.90
18083;DHT22;9168;51.194;6.840;2023-04-09T05:04:53;5.30;99.90
18083;DHT22;9168;51.194;6.840;2023-04-09T05:07:20;5.30;99.90
18083;DHT22;9168;51.194;6.840;2023-04-09T05:09:48;5.20;99.90
18083;DHT22;9168;51.194;6.840;2023-04-09T05:12:15;5.20;99.90
18083;DHT22;9168;51.194;6.840;2023-04-09T05:14:42;5.20;99.90
18083;DHT22;9168;51.194;6.840;2023-04-09T05:17:09;5.20;99.90
18083;DHT22;9168;51.194;6.840;2023-04-09T05:19:36;5.20;99.90
18083;DHT22;9168;51.194;6.840;2023-04-09T05:22:03;5.20;99.90
18083;DHT22;9168;51.194;6.840;2023-04-09T05:24:30;5.10;99.90
18083;DHT22;9168;51.194;6.840;2023-04-09T05:26:58;5.10;99.90
18083;DHT22;9168;51.194;6.840;2023-04-09T05:29:25;5.10;99.90
18083;DHT22;9168;51.194;6.840;2023-04-09T05:31:52;5.20;99.90
18083;DHT22;9168;51.194;6.840;2023-04-09T05:34:19;5.10;99.90
18083;DHT22;9168;51.194;6.840;2023-04-09T05:36:46;5.10;99.90
18083;DHT22;9168;51.194;6.840;2023-04-09T05:39:13;5.10;99.90
18083;DHT22;9168;51.194;6.840;2023-04-09T05:41:40;5.20;99.90
18083;DHT22;9168;51.194;6.840;2023-04-09T05:44:10;5.20;99.90
18083;DHT22;9168;51.194;6.840;2023-04-09T05:46:37;5.20;99.90
18083;DHT22;9168;51.194;6.840;2023-04-09T05:49:03;5.20;99.90
18083;DHT22;9168;51.194;6.840;2023-04-09T05:51:30;5.20;99.90
18083;DHT22;9168;51.194;6.840;2023-04-09T05:53:57;5.30;99.90
18083;DHT22;9168;51.194;6.840;2023-04-09T05:56:25;5.30;99.90
18083;DHT22;9168;51.194;6.840;2023-04-09T05:58:52;5.30;99.90
18083;DHT22;9168;51.194;6.840;2023-04-09T06:01:20;5.40;99.90
18083;DHT22;9168;51.194;6.840;2023-04-09T06:03:47;5.40;99.90
18083;DHT22;9168;51.194;6.840;2023-04-09T06:06:14;5.40;99.90
18083;DHT22;9168;51.194;6.840;2023-04-09T06:08:41;5.40;99.90
18083;DHT22;9168;51.194;6.840;2023-04-09T06:11:09;5.50;99.90
18083;DHT22;9168;51.194;6.840;2023-04-09T06:13:36;5.60;99.90
18083;DHT22;9168;51.194;6.840;2023-04-09T06:16:04;5.60;99.90
18083;DHT22;9168;51.194;6.840;2023-04-09T06:18:32;5.70;99.90
18083;DHT22;9168;51.194;6.840;2023-04-09T06:21:02;5.80;99.90
18083;DHT22;9168;51.194;6.840;2023-04-09T06:23:29;5.90;99.90
18083;DHT22;9168;51.194;6.840;2023-04-09T06:25:56;6.00;99.90
18083;DHT22;9168;51.194;6.840;2023-04-09T06:28:23;6.10;99.90
18083;DHT22;9168;51.194;6.840;2023-04-09T06:30:50;6.20;99.90
18083;DHT22;9168;51.194;6.840;2023-04-09T06:33:18;6.30;99.90
18083;DHT22;9168;51.194;6.840;2023-04-09T06:35:46;6.50;99.90
18083;DHT22;9168;51.194;6.840;2023-04-09T06:38:13;6.60;99.90
18083;DHT22;9168;51.194;6.840;2023-04-09T06:40:40;6.70;99.90
18083;DHT22;9168;51.194;6.840;2023-04-09T06:43:07;6.80;99.90
18083;DHT22;9168;51.194;6.840;2023-04-09T06:45:35;7.00;99.90
18083;DHT22;9168;51.194;6.840;2023-04-09T06:48:03;7.00;99.90
18083;DHT22;9168;51.194;6.840;2023-04-09T06:50:30;7.20;99.90
18083;DHT22;9168;51.194;6.840;2023-04-09T06:52:58;7.30;99.90
18083;DHT22;9168;51.194;6.840;2023-04-09T06:55:25;7.40;99.90
18083;DHT22;9168;51.194;6.840;2023-04-09T06:57:52;7.50;99.90
18083;DHT22;9168;51.194;6.840;2023-04-09T07:00:21;7.70;99.90
18083;DHT22;9168;51.194;6.840;2023-04-09T07:02:48;7.80;99.90
18083;DHT22;9168;51.194;6.840;2023-04-09T07:05:16;7.80;99.90
18083;DHT22;9168;51.194;6.840;2023-04-09T07:07:42;8.00;99.90
18083;DHT22;9168;51.194;6.840;2023-04-09T07:10:11;8.10;99.90
18083;DHT22;9168;51.194;6.840;2023-04-09T07:12:38;8.20;99.90
18083;DHT22;9168;51.194;6.840;2023-04-09T07:15:06;8.30;99.90
18083;DHT22;9168;51.194;6.840;2023-04-09T07:17:34;8.40;99.90
18083;DHT22;9168;51.194;6.840;2023-04-09T07:20:01;8.50;99.90
18083;DHT22;9168;51.194;6.840;2023-04-09T07:22:29;8.60;99.90
18083;DHT22;9168;51.194;6.840;2023-04-09T07:24:56;8.70;99.90
18083;DHT22;9168;51.194;6.840;2023-04-09T07:27:25;8.80;99.90
18083;DHT22;9168;51.194;6.840;2023-04-09T07:29:54;8.90;99.90
18083;DHT22;9168;51.194;6.840;2023-04-09T07:32:21;9.00;99.90
18083;DHT22;9168;51.194;6.840;2023-04-09T07:34:50;9.00;99.90
18083;DHT22;9168;51.194;6.840;2023-04-09T07:37:17;9.10;99.90
18083;DHT22;9168;51.194;6.840;2023-04-09T07:39:44;9.20;99.90
18083;DHT22;9168;51.194;6.840;2023-04-09T07:42:11;9.30;99.90
18083;DHT22;9168;51.194;6.840;2023-04-09T07:44:39;9.50;99.90
18083;DHT22;9168;51.194;6.840;2023-04-09T07:47:06;9.50;99.90
18083;DHT22;9168;51.194;6.840;2023-04-09T07:49:35;9.60;99.90
18083;DHT22;9168;51.194;6.840;2023-04-09T07:52:02;9.70;99.90
18083;DHT22;9168;51.194;6.840;2023-04-09T07:54:29;9.70;99.90
18083;DHT22;9168;51.194;6.840;2023-04-09T07:56:57;9.80;99.90
18083;DHT22;9168;51.194;6.840;2023-04-09T07:59:24;9.90;99.90
18083;DHT22;9168;51.194;6.840;2023-04-09T08:01:52;9.90;99.90
18083;DHT22;9168;51.194;6.840;2023-04-09T08:04:19;9.90;99.90
18083;DHT22;9168;51.194;6.840;2023-04-09T08:06:46;10.00;99.90
18083;DHT22;9168;51.194;6.840;2023-04-09T08:09:15;10.10;99.90
18083;DHT22;9168;51.194;6.840;2023-04-09T08:11:43;10.10;99.90
18083;DHT22;9168;51.194;6.840;2023-04-09T08:14:11;10.10;99.90
18083;DHT22;9168;51.194;6.840;2023-04-09T08:16:39;10.10;99.90
18083;DHT22;9168;51.194;6.840;2023-04-09T08:19:08;10.10;99.90
18083;DHT22;9168;51.194;6.840;2023-04-09T08:21:36;10.20;99.90
18083;DHT22;9168;51.194;6.840;2023-04-09T08:24:04;10.20;99.90
18083;DHT22;9168;51.194;6.840;2023-04-09T08:26:31;10.30;99.90
18083;DHT22;9168;51.194;6.840;2023-04-09T08:28:58;10.40;99.90
18083;DHT22;9168;51.194;6.840;2023-04-09T08:31:25;10.40;99.90
18083;DHT22;9168;51.194;6.840;2023-04-09T08:33:52;10.40;99.90
18083;DHT22;9168;51.194;6.840;2023-04-09T08:36:20;10.50;99.90
18083;DHT22;9168;51.194;6.840;2023-04-09T08:38:47;10.50;99.90
18083;DHT22;9168;51.194;6.840;2023-04-09T08:41:18;10.60;99.90
18083;DHT22;9168;51.194;6.840;2023-04-09T08:43:45;10.60;99.90
18083;DHT22;9168;51.194;6.840;2023-04-09T08:46:12;10.60;99.90
18083;DHT22;9168;51.194;6.840;2023-04-09T08:48:43;10.70;99.90
18083;DHT22;9168;51.194;6.840;2023-04-09T08:51:15;10.80;99.90
18083;DHT22;9168;51.194;6.840;2023-04-09T08:53:45;10.90;99.90
18083;DHT22;9168;51.194;6.840;2023-04-09T08:56:12;10.90;99.90
18083;DHT22;9168;51.194;6.840;2023-04-09T08:58:41;11.00;99.90
18083;DHT22;9168;51.194;6.840;2023-04-09T09:01:19;11.00;99.90
18083;DHT22;9168;51.194;6.840;2023-04-09T09:03:57;11.00;99.90
18083;DHT22;9168;51.194;6.840;2023-04-09T09:06:25;11.10;99.90
18083;DHT22;9168;51.194;6.840;2023-04-09T09:09:02;11.10;99.90
18083;DHT22;9168;51.194;6.840;2023-04-09T09:11:29;11.20;99.90
18083;DHT22;9168;51.194;6.840;2023-04-09T09:13:57;11.20;99.90
18083;DHT22;9168;51.194;6.840;2023-04-09T09:16:24;11.30;99.90
18083;DHT22;9168;51.194;6.840;2023-04-09T09:18:51;11.30;99.90
18083;DHT22;9168;51.194;6.840;2023-04-09T09:21:20;11.40;99.90
18083;DHT22;9168;51.194;6.840;2023-04-09T09:23:47;11.50;99.90
18083;DHT22;9168;51.194;6.840;2023-04-09T09:26:17;11.50;99.90
18083;DHT22;9168;51.194;6.840;2023-04-09T09:28:45;11.60;99.90
18083;DHT22;9168;51.194;6.840;2023-04-09T09:31:13;11.60;99.90
18083;DHT22;9168;51.194;6.840;2023-04-09T09:33:41;11.60;99.90
18083;DHT22;9168;51.194;6.840;2023-04-09T09:36:08;11.70;99.90
18083;DHT22;9168;51.194;6.840;2023-04-09T09:38:50;11.70;99.90
18083;DHT22;9168;51.194;6.840;2023-04-09T09:41:19;11.80;99.90
18083;DHT22;9168;51.194;6.840;2023-04-09T09:43:46;11.90;99.90
18083;DHT22;9168;51.194;6.840;2023-04-09T09:46:14;12.00;99.90
18083;DHT22;9168;51.194;6.840;2023-04-09T09:48:41;12.10;99.90
18083;DHT22;9168;51.194;6.840;2023-04-09T09:51:10;12.20;99.90
18083;DHT22;9168;51.194;6.840;2023-04-09T09:53:38;12.30;99.90
18083;DHT22;9168;51.194;6.840;2023-04-09T09:56:06;12.40;99.90
18083;DHT22;9168;51.194;6.840;2023-04-09T09:58:36;12.50;99.90
18083;DHT22;9168;51.194;6.840;2023-04-09T10:01:07;12.60;99.90
18083;DHT22;9168;51.194;6.840;2023-04-09T10:03:35;12.70;99.90
18083;DHT22;9168;51.194;6.840;2023-04-09T10:06:04;12.70;99.90
18083;DHT22;9168;51.194;6.840;2023-04-09T10:08:32;12.90;99.90
18083;DHT22;9168;51.194;6.840;2023-04-09T10:11:00;13.00;99.90
18083;DHT22;9168;51.194;6.840;2023-04-09T10:13:29;13.20;99.90
18083;DHT22;9168;51.194;6.840;2023-04-09T10:16:00;13.40;99.90
18083;DHT22;9168;51.194;6.840;2023-04-09T10:18:27;13.70;99.90
18083;DHT22;9168;51.194;6.840;2023-04-09T10:20:58;13.90;99.90
18083;DHT22;9168;51.194;6.840;2023-04-09T10:23:31;14.10;99.90
18083;DHT22;9168;51.194;6.840;2023-04-09T10:25:59;14.10;99.90
18083;DHT22;9168;51.194;6.840;2023-04-09T10:28:28;14.40;99.90
18083;DHT22;9168;51.194;6.840;2023-04-09T10:30:56;14.70;99.90
18083;DHT22;9168;51.194;6.840;2023-04-09T10:33:26;15.00;99.90
18083;DHT22;9168;51.194;6.840;2023-04-09T10:35:54;15.30;99.90
18083;DHT22;9168;51.194;6.840;2023-04-09T10:38:33;15.20;99.90
18083;DHT22;9168;51.194;6.840;2023-04-09T10:41:06;15.00;99.90
18083;DHT22;9168;51.194;6.840;2023-04-09T10:43:34;14.90;99.90
18083;DHT22;9168;51.194;6.840;2023-04-09T10:46:03;15.20;99.90
18083;DHT22;9168;51.194;6.840;2023-04-09T10:48:33;16.00;99.90
18083;DHT22;9168;51.194;6.840;2023-04-09T10:51:02;16.70;99.90
18083;DHT22;9168;51.194;6.840;2023-04-09T10:53:31;17.60;99.90
18083;DHT22;9168;51.194;6.840;2023-04-09T10:55:58;18.30;99.90
18083;DHT22;9168;51.194;6.840;2023-04-09T10:58:27;19.10;99.90
18083;DHT22;9168;51.194;6.840;2023-04-09T11:00:54;19.60;99.90
18083;DHT22;9168;51.194;6.840;2023-04-09T11:03:23;20.20;99.90
18083;DHT22;9168;51.194;6.840;2023-04-09T11:05:56;20.80;99.90
18083;DHT22;9168;51.194;6.840;2023-04-09T11:08:27;21.40;98.80
18083;DHT22;9168;51.194;6.840;2023-04-09T11:10:54;21.30;96.40
18083;DHT22;9168;51.194;6.840;2023-04-09T11:13:23;20.70;96.60
18083;DHT22;9168;51.194;6.840;2023-04-09T11:15:50;20.10;98.40
18083;DHT22;9168;51.194;6.840;2023-04-09T11:18:21;19.20;97.20
18083;DHT22;9168;51.194;6.840;2023-04-09T11:20:48;18.90;98.60
18083;DHT22;9168;51.194;6.840;2023-04-09T11:23:17;19.40;98.40
18083;DHT22;9168;51.194;6.840;2023-04-09T11:25:48;20.30;97.50
18083;DHT22;9168;51.194;6.840;2023-04-09T11:28:15;20.50;95.30
18083;DHT22;9168;51.194;6.840;2023-04-09T11:30:42;20.50;95.80
18083;DHT22;9168;51.194;6.840;2023-04-09T11:33:11;19.80;95.60
18083;DHT22;9168;51.194;6.840;2023-04-09T11:35:38;19.30;95.40
18083;DHT22;9168;51.194;6.840;2023-04-09T11:38:06;18.80;97.50
18083;DHT22;9168;51.194;6.840;2023-04-09T11:40:35;18.20;97.30
18083;DHT22;9168;51.194;6.840;2023-04-09T11:43:07;18.60;98.50
18083;DHT22;9168;51.194;6.840;2023-04-09T11:45:34;18.50;98.20
18083;DHT22;9168;51.194;6.840;2023-04-09T11:48:02;17.90;97.10
18083;DHT22;9168;51.194;6.840;2023-04-09T11:50:29;17.30;97.20
18083;DHT22;9168;51.194;6.840;2023-04-09T11:52:56;17.20;99.20
18083;DHT22;9168;51.194;6.840;2023-04-09T11:55:24;17.20;99.10
18083;DHT22;9168;51.194;6.840;2023-04-09T11:57:55;17.30;98.60
18083;DHT22;9168;51.194;6.840;2023-04-09T12:00:23;17.30;99.90
18083;DHT22;9168;51.194;6.840;2023-04-09T12:02:58;17.20;98.60
18083;DHT22;9168;51.194;6.840;2023-04-09T12:05:28;17.00;99.40
18083;DHT22;9168;51.194;6.840;2023-04-09T12:07:57;16.80;99.50
18083;DHT22;9168;51.194;6.840;2023-04-09T12:10:26;16.60;99.80
18083;DHT22;9168;51.194;6.840;2023-04-09T12:12:59;16.50;99.90
18083;DHT22;9168;51.194;6.840;2023-04-09T12:15:30;16.40;99.90
18083;DHT22;9168;51.194;6.840;2023-04-09T12:17:57;16.30;99.90
18083;DHT22;9168;51.194;6.840;2023-04-09T12:20:29;16.10;99.90
18083;DHT22;9168;51.194;6.840;2023-04-09T12:22:56;16.00;99.90
18083;DHT22;9168;51.194;6.840;2023-04-09T12:25:24;16.00;99.90
18083;DHT22;9168;51.194;6.840;2023-04-09T12:27:51;15.90;99.90
18083;DHT22;9168;51.194;6.840;2023-04-09T12:30:20;15.90;99.90
18083;DHT22;9168;51.194;6.840;2023-04-09T12:32:46;16.20;99.90
18083;DHT22;9168;51.194;6.840;2023-04-09T12:35:13;16.30;99.90
18083;DHT22;9168;51.194;6.840;2023-04-09T12:37:41;16.40;99.90
18083;DHT22;9168;51.194;6.840;2023-04-09T12:40:08;17.00;99.90
18083;DHT22;9168;51.194;6.840;2023-04-09T12:42:37;17.40;99.90
18083;DHT22;9168;51.194;6.840;2023-04-09T12:45:05;17.50;98.40
18083;DHT22;9168;51.194;6.840;2023-04-09T12:47:33;17.50;98.60
18083;DHT22;9168;51.194;6.840;2023-04-09T12:50:00;17.40;98.60
18083;DHT22;9168;51.194;6.840;2023-04-09T12:52:27;17.40;98.80
18083;DHT22;9168;51.194;6.840;2023-04-09T12:54:54;17.30;99.20
18083;DHT22;9168;51.194;6.840;2023-04-09T12:57:21;17.20;99.40
18083;DHT22;9168;51.194;6.840;2023-04-09T12:59:48;17.40;98.60
18083;DHT22;9168;51.194;6.840;2023-04-09T13:02:15;17.80;98.60
18083;DHT22;9168;51.194;6.840;2023-04-09T13:04:43;18.00;97.50
18083;DHT22;9168;51.194;6.840;2023-04-09T13:07:11;18.00;97.30
18083;DHT22;9168;51.194;6.840;2023-04-09T13:09:40;17.90;98.70
18083;DHT22;9168;51.194;6.840;2023-04-09T13:12:07;17.60;98.80
18083;DHT22;9168;51.194;6.840;2023-04-09T13:14:34;17.20;98.20
18083;DHT22;9168;51.194;6.840;2023-04-09T13:17:01;16.90;98.40
18083;DHT22;9168;51.194;6.840;2023-04-09T13:19:27;16.60;98.60
18083;DHT22;9168;51.194;6.840;2023-04-09T13:21:56;16.40;98.70
18083;DHT22;9168;51.194;6.840;2023-04-09T13:24:22;16.30;98.90
18083;DHT22;9168;51.194;6.840;2023-04-09T13:26:49;16.20;99.30
18083;DHT22;9168;51.194;6.840;2023-04-09T13:29:16;16.10;99.30
18083;DHT22;9168;51.194;6.840;2023-04-09T13:31:43;16.20;99.90
18083;DHT22;9168;51.194;6.840;2023-04-09T13:34:10;16.30;99.90
18083;DHT22;9168;51.194;6.840;2023-04-09T13:36:37;16.30;99.90
18083;DHT22;9168;51.194;6.840;2023-04-09T13:39:05;16.30;99.90
18083;DHT22;9168;51.194;6.840;2023-04-09T13:41:32;16.40;99.00
18083;DHT22;9168;51.194;6.840;2023-04-09T13:44:00;16.90;99.60
18083;DHT22;9168;51.194;6.840;2023-04-09T13:46:27;17.70;98.60
18083;DHT22;9168;51.194;6.840;2023-04-09T13:48:54;18.50;98.10
18083;DHT22;9168;51.194;6.840;2023-04-09T13:51:21;18.90;95.60
18083;DHT22;9168;51.194;6.840;2023-04-09T13:53:48;19.70;95.10
18083;DHT22;9168;51.194;6.840;2023-04-09T13:56:16;20.10;95.40
18083;DHT22;9168;51.194;6.840;2023-04-09T13:58:43;20.40;94.20
18083;DHT22;9168;51.194;6.840;2023-04-09T14:01:11;20.70;94.50
18083;DHT22;9168;51.194;6.840;2023-04-09T14:03:39;21.20;93.40
18083;DHT22;9168;51.194;6.840;2023-04-09T14:06:06;21.60;93.50
18083;DHT22;9168;51.194;6.840;2023-04-09T14:08:34;22.10;92.20
18083;DHT22;9168;51.194;6.840;2023-04-09T14:11:01;21.90;90.70
18083;DHT22;9168;51.194;6.840;2023-04-09T14:13:29;21.90;90.40
18083;DHT22;9168;51.194;6.840;2023-04-09T14:15:56;21.90;90.50
18083;DHT22;9168;51.194;6.840;2023-04-09T14:18:23;21.80;89.40
18083;DHT22;9168;51.194;6.840;2023-04-09T14:20:50;22.20;87.90
18083;DHT22;9168;51.194;6.840;2023-04-09T14:23:17;22.40;87.10
18083;DHT22;9168;51.194;6.840;2023-04-09T14:25:44;22.70;87.40
18083;DHT22;9168;51.194;6.840;2023-04-09T14:28:11;22.50;85.10
18083;DHT22;9168;51.194;6.840;2023-04-09T14:30:39;22.40;85.60
18083;DHT22;9168;51.194;6.840;2023-04-09T14:33:06;22.60;86.30
18083;DHT22;9168;51.194;6.840;2023-04-09T14:35:33;22.50;85.30
18083;DHT22;9168;51.194;6.840;2023-04-09T14:38:00;22.20;84.70
18083;DHT22;9168;51.194;6.840;2023-04-09T14:40:29;22.00;86.40
18083;DHT22;9168;51.194;6.840;2023-04-09T14:42:56;22.60;87.80
18083;DHT22;9168;51.194;6.840;2023-04-09T14:45:23;23.10;85.30
18083;DHT22;9168;51.194;6.840;2023-04-09T14:47:51;23.30;84.00
18083;DHT22;9168;51.194;6.840;2023-04-09T14:50:19;23.20;81.50
18083;DHT22;9168;51.194;6.840;2023-04-09T14:52:46;22.90;83.00
18083;DHT22;9168;51.194;6.840;2023-04-09T14:55:13;22.30;83.80
18083;DHT22;9168;51.194;6.840;2023-04-09T14:57:40;22.00;82.90
18083;DHT22;9168;51.194;6.840;2023-04-09T15:00:09;21.40;83.10
18083;DHT22;9168;51.194;6.840;2023-04-09T15:02:36;20.70;85.50
18083;DHT22;9168;51.194;6.840;2023-04-09T15:05:06;20.30;87.10
18083;DHT22;9168;51.194;6.840;2023-04-09T15:07:33;20.00;89.90
18083;DHT22;9168;51.194;6.840;2023-04-09T15:10:00;19.60;90.40
18083;DHT22;9168;51.194;6.840;2023-04-09T15:12:27;19.30;90.90
18083;DHT22;9168;51.194;6.840;2023-04-09T15:14:54;19.40;89.40
18083;DHT22;9168;51.194;6.840;2023-04-09T15:17:21;19.60;88.70
18083;DHT22;9168;51.194;6.840;2023-04-09T15:19:48;19.50;88.40
18083;DHT22;9168;51.194;6.840;2023-04-09T15:22:17;19.60;87.60
18083;DHT22;9168;51.194;6.840;2023-04-09T15:24:43;19.80;88.40
18083;DHT22;9168;51.194;6.840;2023-04-09T15:27:10;20.10;87.60
18083;DHT22;9168;51.194;6.840;2023-04-09T15:29:46;20.50;88.10
18083;DHT22;9168;51.194;6.840;2023-04-09T15:32:17;20.50;88.00
18083;DHT22;9168;51.194;6.840;2023-04-09T15:34:46;20.50;87.20
18083;DHT22;9168;51.194;6.840;2023-04-09T15:37:13;20.20;88.20
18083;DHT22;9168;51.194;6.840;2023-04-09T15:39:41;20.10;88.10
18083;DHT22;9168;51.194;6.840;2023-04-09T15:42:08;19.60;86.90
18083;DHT22;9168;51.194;6.840;2023-04-09T15:44:35;19.00;88.40
18083;DHT22;9168;51.194;6.840;2023-04-09T15:47:03;18.80;89.60
18083;DHT22;9168;51.194;6.840;2023-04-09T15:49:30;18.80;90.20
18083;DHT22;9168;51.194;6.840;2023-04-09T15:51:57;18.70;90.40
18083;DHT22;9168;51.194;6.840;2023-04-09T15:54:24;18.50;91.20
18083;DHT22;9168;51.194;6.840;2023-04-09T15:56:52;18.40;91.20
18083;DHT22;9168;51.194;6.840;2023-04-09T15:59:19;18.30;91.50